createdAt,value
2022-10-23T00:00:55.000Z,11.93
2022-10-23T00:01:55.000Z,11.90
2022-10-23T00:02:55.000Z,11.91
2022-10-23T00:04:01.000Z,11.88
2022-10-23T00:04:55.000Z,11.90
2022-10-23T00:05:55.000Z,11.96
2022-10-23T00:06:55.000Z,11.96
2022-10-23T00:07:58.000Z,11.94
2022-10-23T00:08:55.000Z,11.89
2022-10-23T00:09:55.000Z,11.91
2022-10-23T00:10:55.000Z,11.90
2022-10-23T00:11:55.000Z,11.94
2022-10-23T00:12:55.000Z,11.92
2022-10-23T00:13:59.000Z,11.93
2022-10-23T00:14:55.000Z,11.96
2022-10-23T00:15:55.000Z,11.94
2022-10-23T00:16:55.000Z,11.93
2022-10-23T00:17:55.000Z,11.91
2022-10-23T00:18:55.000Z,11.95
2022-10-23T00:19:55.000Z,11.96
2022-10-23T00:20:55.000Z,11.95
2022-10-23T00:21:55.000Z,11.92
2022-10-23T00:22:55.000Z,11.93
2022-10-23T00:23:55.000Z,11.94
2022-10-23T00:24:55.000Z,11.92
2022-10-23T00:25:55.000Z,11.91
2022-10-23T00:26:55.000Z,11.88
2022-10-23T00:27:55.000Z,11.91
2022-10-23T00:28:55.000Z,11.91
2022-10-23T00:29:55.000Z,11.91
2022-10-23T00:30:55.000Z,11.93
2022-10-23T00:31:55.000Z,11.90
2022-10-23T00:32:55.000Z,11.91
2022-10-23T00:33:55.000Z,11.90
2022-10-23T00:34:55.000Z,11.90
2022-10-23T00:35:55.000Z,11.93
2022-10-23T00:36:55.000Z,11.87
2022-10-23T00:37:55.000Z,11.90
2022-10-23T00:38:55.000Z,11.92
2022-10-23T00:39:55.000Z,11.89
2022-10-23T00:40:55.000Z,11.92
2022-10-23T00:41:56.000Z,11.91
2022-10-23T00:42:55.000Z,11.91
2022-10-23T00:44:01.000Z,11.93
2022-10-23T00:45:05.000Z,11.93
2022-10-23T00:45:56.000Z,11.93
2022-10-23T00:46:57.000Z,11.91
2022-10-23T00:47:56.000Z,11.89
2022-10-23T00:48:56.000Z,11.91
2022-10-23T00:49:56.000Z,11.93
2022-10-23T00:50:55.000Z,11.92
2022-10-23T00:51:59.000Z,11.93
2022-10-23T00:52:59.000Z,11.91
2022-10-23T00:53:58.000Z,11.94
2022-10-23T00:54:56.000Z,11.93
2022-10-23T00:55:58.000Z,11.93
2022-10-23T00:56:59.000Z,11.93
2022-10-23T00:57:56.000Z,11.93
2022-10-23T00:58:56.000Z,11.95
2022-10-23T00:59:56.000Z,11.91
2022-10-23T01:00:56.000Z,11.94
2022-10-23T01:01:57.000Z,11.92
2022-10-23T01:02:56.000Z,11.92
2022-10-23T01:03:56.000Z,11.92
2022-10-23T01:04:56.000Z,11.93
2022-10-23T01:06:03.000Z,11.97
2022-10-23T01:07:16.000Z,11.94
2022-10-23T01:08:05.000Z,11.97
2022-10-23T01:09:18.000Z,11.93
2022-10-23T01:10:19.000Z,11.91
2022-10-23T01:11:06.000Z,11.94
2022-10-23T01:12:06.000Z,11.96
2022-10-23T01:13:13.000Z,11.95
2022-10-23T01:14:02.000Z,11.90
2022-10-23T01:15:09.000Z,11.94
2022-10-23T01:16:04.000Z,11.91
2022-10-23T01:17:09.000Z,11.92
2022-10-23T01:18:18.000Z,11.88
2022-10-23T01:19:19.000Z,11.91
2022-10-23T01:20:06.000Z,11.91
2022-10-23T01:21:06.000Z,11.94
2022-10-23T01:22:16.000Z,11.92
2022-10-23T01:23:06.000Z,11.93
2022-10-23T01:24:19.000Z,11.90
2022-10-23T01:25:09.000Z,11.91
2022-10-23T01:26:07.000Z,11.92
2022-10-23T01:27:06.000Z,11.91
2022-10-23T01:28:01.000Z,11.90
2022-10-23T01:29:03.000Z,11.91
2022-10-23T01:30:08.000Z,11.91
2022-10-23T01:30:59.000Z,11.88
2022-10-23T01:32:12.000Z,11.87
2022-10-23T01:33:20.000Z,11.89
2022-10-23T01:34:06.000Z,11.86
2022-10-23T01:35:05.000Z,11.90
2022-10-23T01:36:02.000Z,11.85
2022-10-23T01:36:59.000Z,11.89
2022-10-23T01:38:16.000Z,11.87
2022-10-23T01:39:14.000Z,11.93
2022-10-23T01:40:01.000Z,11.89
2022-10-23T01:41:06.000Z,11.92
2022-10-23T01:42:06.000Z,11.90
2022-10-23T01:43:03.000Z,11.89
2022-10-23T01:44:06.000Z,11.92
2022-10-23T01:45:05.000Z,11.87
2022-10-23T01:46:00.000Z,11.87
2022-10-23T01:46:57.000Z,11.87
2022-10-23T01:47:57.000Z,11.86
2022-10-23T01:48:57.000Z,11.83
2022-10-23T01:49:57.000Z,11.85
2022-10-23T01:51:02.000Z,11.84
2022-10-23T01:52:00.000Z,11.84
2022-10-23T01:52:56.000Z,11.87
2022-10-23T01:53:59.000Z,11.81
2022-10-23T01:54:59.000Z,11.84
2022-10-23T01:55:59.000Z,11.86
2022-10-23T01:56:57.000Z,11.85
2022-10-23T01:57:57.000Z,11.90
2022-10-23T01:58:59.000Z,11.86
2022-10-23T02:00:01.000Z,11.89
2022-10-23T02:01:01.000Z,11.84
2022-10-23T02:01:57.000Z,11.83
2022-10-23T02:02:56.000Z,11.84
2022-10-23T02:03:57.000Z,11.88
2022-10-23T02:05:01.000Z,11.89
2022-10-23T02:05:55.000Z,11.87
2022-10-23T02:06:55.000Z,11.85
2022-10-23T02:07:56.000Z,11.85
2022-10-23T02:08:55.000Z,11.82
2022-10-23T02:09:55.000Z,11.81
2022-10-23T02:11:05.000Z,11.85
2022-10-23T02:12:06.000Z,11.84
2022-10-23T02:13:05.000Z,11.84
2022-10-23T02:14:04.000Z,11.85
2022-10-23T02:15:06.000Z,11.88
2022-10-23T02:16:05.000Z,11.89
2022-10-23T02:17:05.000Z,11.88
2022-10-23T02:18:25.000Z,11.87
2022-10-23T02:19:18.000Z,11.84
2022-10-23T02:20:06.000Z,11.87
2022-10-23T02:21:05.000Z,11.87
2022-10-23T02:22:10.000Z,11.89
2022-10-23T02:23:05.000Z,11.87
2022-10-23T02:24:00.000Z,11.88
2022-10-23T02:25:09.000Z,11.87
2022-10-23T02:26:05.000Z,11.85
2022-10-23T02:26:59.000Z,11.86
2022-10-23T02:27:58.000Z,11.84
2022-10-23T02:29:04.000Z,11.89
2022-10-23T02:30:01.000Z,11.86
2022-10-23T02:30:57.000Z,11.84
2022-10-23T02:31:55.000Z,11.83
2022-10-23T02:32:56.000Z,11.82
2022-10-23T02:33:55.000Z,11.82
2022-10-23T02:34:55.000Z,11.84
2022-10-23T02:35:55.000Z,11.88
2022-10-23T02:36:55.000Z,11.86
2022-10-23T02:37:58.000Z,11.81
2022-10-23T02:38:55.000Z,11.83
2022-10-23T02:39:55.000Z,11.82
2022-10-23T02:41:09.000Z,11.82
2022-10-23T02:42:14.000Z,11.81
2022-10-23T02:43:06.000Z,11.79
2022-10-23T02:44:05.000Z,11.82
2022-10-23T02:45:06.000Z,11.81
2022-10-23T02:46:21.000Z,11.84
2022-10-23T02:47:05.000Z,11.85
2022-10-23T02:48:11.000Z,11.82
2022-10-23T02:49:10.000Z,11.85
2022-10-23T02:50:15.000Z,11.79
2022-10-23T02:51:17.000Z,11.78
2022-10-23T02:52:07.000Z,11.78
2022-10-23T02:53:05.000Z,11.77
2022-10-23T02:54:06.000Z,11.81
2022-10-23T02:55:14.000Z,11.78
2022-10-23T02:56:18.000Z,11.77
2022-10-23T02:57:04.000Z,11.80
2022-10-23T02:58:19.000Z,11.80
2022-10-23T02:59:18.000Z,11.80
2022-10-23T03:00:10.000Z,11.81
2022-10-23T03:01:04.000Z,11.78
2022-10-23T03:02:05.000Z,11.81
2022-10-23T03:03:04.000Z,11.76
2022-10-23T03:03:59.000Z,11.78
2022-10-23T03:04:57.000Z,11.76
2022-10-23T03:05:56.000Z,11.77
2022-10-23T03:06:56.000Z,11.79
2022-10-23T03:07:56.000Z,11.75
2022-10-23T03:09:03.000Z,11.75
2022-10-23T03:09:55.000Z,11.74
2022-10-23T03:10:56.000Z,11.79
2022-10-23T03:11:55.000Z,11.81
2022-10-23T03:12:56.000Z,11.80
2022-10-23T03:13:55.000Z,11.81
2022-10-23T03:14:55.000Z,11.78
2022-10-23T03:15:55.000Z,11.77
2022-10-23T03:16:55.000Z,11.77
2022-10-23T03:17:55.000Z,11.78
2022-10-23T03:18:55.000Z,11.81
2022-10-23T03:19:55.000Z,11.78
2022-10-23T03:20:56.000Z,11.80
2022-10-23T03:21:56.000Z,11.78
2022-10-23T03:22:55.000Z,11.74
2022-10-23T03:23:55.000Z,11.74
2022-10-23T03:24:55.000Z,11.74
2022-10-23T03:25:55.000Z,11.75
2022-10-23T03:26:55.000Z,11.78
2022-10-23T03:27:56.000Z,11.76
2022-10-23T03:28:56.000Z,11.74
2022-10-23T03:29:56.000Z,11.79
2022-10-23T03:30:56.000Z,11.76
2022-10-23T03:31:56.000Z,11.73
2022-10-23T03:32:56.000Z,11.74
2022-10-23T03:33:56.000Z,11.73
2022-10-23T03:34:56.000Z,11.74
2022-10-23T03:35:56.000Z,11.74
2022-10-23T03:36:56.000Z,11.72
2022-10-23T03:37:56.000Z,11.71
2022-10-23T03:38:55.000Z,11.71
2022-10-23T03:39:56.000Z,11.71
2022-10-23T03:40:56.000Z,11.69
2022-10-23T03:41:56.000Z,11.69
2022-10-23T03:42:56.000Z,11.72
2022-10-23T03:43:56.000Z,11.73
2022-10-23T03:44:56.000Z,11.70
2022-10-23T03:45:56.000Z,11.72
2022-10-23T03:46:56.000Z,11.71
2022-10-23T03:47:56.000Z,11.69
2022-10-23T03:48:58.000Z,11.72
2022-10-23T03:49:56.000Z,11.71
2022-10-23T03:50:56.000Z,11.68
2022-10-23T03:51:56.000Z,11.66
2022-10-23T03:52:56.000Z,11.67
2022-10-23T03:53:56.000Z,11.66
2022-10-23T03:54:56.000Z,11.69
2022-10-23T03:55:56.000Z,11.69
2022-10-23T03:56:56.000Z,11.65
2022-10-23T03:57:56.000Z,11.66
2022-10-23T03:58:55.000Z,11.64
2022-10-23T03:59:56.000Z,11.64
2022-10-23T04:00:56.000Z,11.64
2022-10-23T04:01:56.000Z,11.61
2022-10-23T04:02:55.000Z,11.64
2022-10-23T04:03:55.000Z,11.63
2022-10-23T04:04:55.000Z,11.61
2022-10-23T04:05:56.000Z,11.58
2022-10-23T04:06:55.000Z,11.58
2022-10-23T04:07:56.000Z,11.52
2022-10-23T04:08:56.000Z,11.54
2022-10-23T04:09:56.000Z,11.54
2022-10-23T04:10:56.000Z,11.56
2022-10-23T04:11:56.000Z,11.54
2022-10-23T04:12:56.000Z,11.57
2022-10-23T04:13:56.000Z,11.56
2022-10-23T04:14:56.000Z,11.54
2022-10-23T04:15:56.000Z,11.57
2022-10-23T04:16:56.000Z,11.55
2022-10-23T04:17:56.000Z,11.53
2022-10-23T04:18:56.000Z,11.55
2022-10-23T04:19:55.000Z,11.53
2022-10-23T04:20:56.000Z,11.53
2022-10-23T04:21:56.000Z,11.54
2022-10-23T04:22:55.000Z,11.49
2022-10-23T04:23:56.000Z,11.52
2022-10-23T04:24:55.000Z,11.46
2022-10-23T04:25:56.000Z,11.47
2022-10-23T04:26:56.000Z,11.48
2022-10-23T04:27:56.000Z,11.45
2022-10-23T04:28:55.000Z,11.47
2022-10-23T04:29:56.000Z,11.50
2022-10-23T04:30:56.000Z,11.47
2022-10-23T04:31:56.000Z,11.46
2022-10-23T04:32:56.000Z,11.52
2022-10-23T04:33:56.000Z,11.48
2022-10-23T04:34:56.000Z,11.46
2022-10-23T04:35:55.000Z,11.46
2022-10-23T04:36:55.000Z,11.47
2022-10-23T04:37:55.000Z,11.49
2022-10-23T04:38:55.000Z,11.48
2022-10-23T04:39:55.000Z,11.49
2022-10-23T04:40:56.000Z,11.44
2022-10-23T04:41:55.000Z,11.48
2022-10-23T04:42:56.000Z,11.43
2022-10-23T04:43:55.000Z,11.45
2022-10-23T04:44:56.000Z,11.46
2022-10-23T04:45:56.000Z,11.44
2022-10-23T04:46:56.000Z,11.44
2022-10-23T04:47:55.000Z,11.43
2022-10-23T04:48:55.000Z,11.45
2022-10-23T04:49:55.000Z,11.45
2022-10-23T04:51:01.000Z,11.46
2022-10-23T04:51:55.000Z,11.43
2022-10-23T04:52:56.000Z,11.45
2022-10-23T04:53:56.000Z,11.45
2022-10-23T04:54:55.000Z,11.43
2022-10-23T04:55:57.000Z,11.45
2022-10-23T04:56:55.000Z,11.46
2022-10-23T04:57:55.000Z,11.44
2022-10-23T04:58:56.000Z,11.43
2022-10-23T04:59:56.000Z,11.45
2022-10-23T05:00:56.000Z,11.38
2022-10-23T05:01:56.000Z,11.36
2022-10-23T05:02:56.000Z,11.39
2022-10-23T05:03:56.000Z,11.40
2022-10-23T05:04:56.000Z,11.45
2022-10-23T05:05:56.000Z,11.42
2022-10-23T05:06:56.000Z,11.42
2022-10-23T05:07:56.000Z,11.44
2022-10-23T05:08:56.000Z,11.43
2022-10-23T05:09:56.000Z,11.42
2022-10-23T05:10:56.000Z,11.46
2022-10-23T05:11:56.000Z,11.44
2022-10-23T05:12:56.000Z,11.45
2022-10-23T05:13:56.000Z,11.45
2022-10-23T05:14:56.000Z,11.49
2022-10-23T05:15:57.000Z,11.45
2022-10-23T05:17:00.000Z,11.39
2022-10-23T05:18:08.000Z,11.40
2022-10-23T05:18:56.000Z,11.41
2022-10-23T05:19:59.000Z,11.41
2022-10-23T05:21:04.000Z,11.41
2022-10-23T05:21:56.000Z,11.44
2022-10-23T05:22:59.000Z,11.43
2022-10-23T05:23:56.000Z,11.46
2022-10-23T05:24:57.000Z,11.46
2022-10-23T05:25:56.000Z,11.44
2022-10-23T05:26:56.000Z,11.46
2022-10-23T05:27:56.000Z,11.43
2022-10-23T05:28:56.000Z,11.48
2022-10-23T05:29:56.000Z,11.43
2022-10-23T05:30:58.000Z,11.40
2022-10-23T05:31:59.000Z,11.42
2022-10-23T05:32:55.000Z,11.43
2022-10-23T05:33:56.000Z,11.40
2022-10-23T05:34:56.000Z,11.38
2022-10-23T05:35:57.000Z,11.37
2022-10-23T05:36:56.000Z,11.38
2022-10-23T05:37:58.000Z,11.35
2022-10-23T05:38:56.000Z,11.39
2022-10-23T05:39:56.000Z,11.39
2022-10-23T05:40:56.000Z,11.42
2022-10-23T05:41:55.000Z,11.37
2022-10-23T05:42:55.000Z,11.42
2022-10-23T05:43:56.000Z,11.40
2022-10-23T05:44:55.000Z,11.44
2022-10-23T05:45:56.000Z,11.41
2022-10-23T05:46:55.000Z,11.41
2022-10-23T05:47:56.000Z,11.40
2022-10-23T05:48:55.000Z,11.42
2022-10-23T05:49:56.000Z,11.43
2022-10-23T05:51:01.000Z,11.44
2022-10-23T05:51:55.000Z,11.45
2022-10-23T05:52:55.000Z,11.40
2022-10-23T05:53:56.000Z,11.38
2022-10-23T05:54:55.000Z,11.43
2022-10-23T05:55:56.000Z,11.44
2022-10-23T05:56:56.000Z,11.41
2022-10-23T05:57:55.000Z,11.41
2022-10-23T05:58:55.000Z,11.43
2022-10-23T05:59:55.000Z,11.44
2022-10-23T06:00:55.000Z,11.41
2022-10-23T06:01:55.000Z,11.44
2022-10-23T06:02:58.000Z,11.39
2022-10-23T06:03:57.000Z,11.39
2022-10-23T06:04:55.000Z,11.40
2022-10-23T06:05:55.000Z,11.40
2022-10-23T06:06:55.000Z,11.40
2022-10-23T06:07:58.000Z,11.35
2022-10-23T06:08:55.000Z,11.37
2022-10-23T06:09:55.000Z,11.33
2022-10-23T06:10:55.000Z,11.31
2022-10-23T06:11:55.000Z,11.32
2022-10-23T06:12:55.000Z,11.31
2022-10-23T06:13:55.000Z,11.31
2022-10-23T06:14:55.000Z,11.30
2022-10-23T06:15:55.000Z,11.28
2022-10-23T06:16:55.000Z,11.30
2022-10-23T06:17:58.000Z,11.30
2022-10-23T06:18:55.000Z,11.30
2022-10-23T06:20:00.000Z,11.28
2022-10-23T06:20:55.000Z,11.31
2022-10-23T06:21:55.000Z,11.29
2022-10-23T06:22:55.000Z,11.24
2022-10-23T06:23:55.000Z,11.27
2022-10-23T06:24:55.000Z,11.24
2022-10-23T06:25:55.000Z,11.30
2022-10-23T06:26:55.000Z,11.28
2022-10-23T06:27:55.000Z,11.23
2022-10-23T06:28:55.000Z,11.29
2022-10-23T06:29:55.000Z,11.30
2022-10-23T06:30:55.000Z,11.30
2022-10-23T06:31:55.000Z,11.28
2022-10-23T06:32:55.000Z,11.26
2022-10-23T06:33:57.000Z,11.26
2022-10-23T06:34:55.000Z,11.30
2022-10-23T06:35:55.000Z,11.29
2022-10-23T06:36:55.000Z,11.28
2022-10-23T06:37:55.000Z,11.27
2022-10-23T06:38:55.000Z,11.31
2022-10-23T06:39:55.000Z,11.29
2022-10-23T06:40:55.000Z,11.28
2022-10-23T06:41:55.000Z,11.26
2022-10-23T06:42:56.000Z,11.27
2022-10-23T06:43:55.000Z,11.27
2022-10-23T06:44:56.000Z,11.30
2022-10-23T06:45:59.000Z,11.28
2022-10-23T06:46:55.000Z,11.30
2022-10-23T06:47:55.000Z,11.25
2022-10-23T06:48:55.000Z,11.25
2022-10-23T06:49:55.000Z,11.23
2022-10-23T06:50:55.000Z,11.27
2022-10-23T06:51:55.000Z,11.27
2022-10-23T06:52:55.000Z,11.29
2022-10-23T06:53:55.000Z,11.30
2022-10-23T06:54:55.000Z,11.30
2022-10-23T06:56:00.000Z,11.35
2022-10-23T06:56:55.000Z,11.31
2022-10-23T06:57:55.000Z,11.28
2022-10-23T06:58:55.000Z,11.29
2022-10-23T06:59:55.000Z,11.32
2022-10-23T07:00:58.000Z,11.32
2022-10-23T07:01:55.000Z,11.36
2022-10-23T07:02:55.000Z,11.34
2022-10-23T07:03:54.000Z,11.33
2022-10-23T07:04:54.000Z,11.34
2022-10-23T07:05:58.000Z,11.30
2022-10-23T07:06:55.000Z,11.32
2022-10-23T07:07:54.000Z,11.33
2022-10-23T07:08:54.000Z,11.32
2022-10-23T07:09:54.000Z,11.30
2022-10-23T07:10:55.000Z,11.34
2022-10-23T07:11:55.000Z,11.34
2022-10-23T07:12:58.000Z,11.34
2022-10-23T07:13:55.000Z,11.37
2022-10-23T07:14:54.000Z,11.35
2022-10-23T07:15:54.000Z,11.37
2022-10-23T07:16:56.000Z,11.39
2022-10-23T07:17:54.000Z,11.35
2022-10-23T07:18:58.000Z,11.36
2022-10-23T07:19:54.000Z,11.36
2022-10-23T07:20:56.000Z,11.41
2022-10-23T07:21:55.000Z,11.32
2022-10-23T07:22:55.000Z,11.41
2022-10-23T07:23:55.000Z,11.37
2022-10-23T07:24:54.000Z,11.40
2022-10-23T07:26:01.000Z,11.41
2022-10-23T07:26:56.000Z,11.40
2022-10-23T07:27:54.000Z,11.42
2022-10-23T07:28:54.000Z,11.46
2022-10-23T07:29:54.000Z,11.42
2022-10-23T07:30:56.000Z,11.46
2022-10-23T07:31:57.000Z,11.48
2022-10-23T07:32:55.000Z,11.46
2022-10-23T07:33:55.000Z,11.46
2022-10-23T07:34:55.000Z,11.45
2022-10-23T07:35:55.000Z,11.43
2022-10-23T07:36:56.000Z,11.43
2022-10-23T07:37:58.000Z,11.42
2022-10-23T07:38:55.000Z,11.47
2022-10-23T07:40:04.000Z,11.49
2022-10-23T07:40:57.000Z,11.49
2022-10-23T07:41:55.000Z,11.49
2022-10-23T07:42:55.000Z,11.50
2022-10-23T07:43:55.000Z,11.49
2022-10-23T07:44:55.000Z,11.53
2022-10-23T07:45:55.000Z,11.49
2022-10-23T07:46:55.000Z,11.52
2022-10-23T07:47:55.000Z,11.50
2022-10-23T07:48:55.000Z,11.49
2022-10-23T07:49:55.000Z,11.50
2022-10-23T07:51:01.000Z,11.49
2022-10-23T07:51:57.000Z,11.51
2022-10-23T07:52:57.000Z,11.54
2022-10-23T07:53:55.000Z,11.56
2022-10-23T07:54:55.000Z,11.59
2022-10-23T07:55:58.000Z,11.58
2022-10-23T07:56:55.000Z,11.49
2022-10-23T07:57:55.000Z,11.53
2022-10-23T07:58:55.000Z,11.57
2022-10-23T07:59:55.000Z,11.61
2022-10-23T08:00:59.000Z,11.62
2022-10-23T08:01:55.000Z,11.61
2022-10-23T08:02:55.000Z,11.59
2022-10-23T08:03:55.000Z,11.54
2022-10-23T08:04:55.000Z,11.58
2022-10-23T08:05:56.000Z,11.58
2022-10-23T08:06:55.000Z,11.57
2022-10-23T08:07:55.000Z,11.61
2022-10-23T08:08:55.000Z,11.59
2022-10-23T08:09:55.000Z,11.60
2022-10-23T08:10:55.000Z,11.66
2022-10-23T08:11:55.000Z,11.72
2022-10-23T08:12:55.000Z,11.70
2022-10-23T08:13:56.000Z,11.74
2022-10-23T08:14:55.000Z,11.79
2022-10-23T08:15:55.000Z,11.79
2022-10-23T08:16:55.000Z,11.75
2022-10-23T08:17:55.000Z,11.79
2022-10-23T08:18:56.000Z,11.77
2022-10-23T08:19:55.000Z,11.84
2022-10-23T08:21:00.000Z,11.79
2022-10-23T08:21:55.000Z,11.83
2022-10-23T08:22:55.000Z,11.84
2022-10-23T08:23:56.000Z,11.83
2022-10-23T08:24:55.000Z,11.84
2022-10-23T08:25:59.000Z,11.87
2022-10-23T08:26:55.000Z,11.80
2022-10-23T08:27:55.000Z,11.78
2022-10-23T08:28:58.000Z,11.84
2022-10-23T08:29:55.000Z,11.86
2022-10-23T08:30:55.000Z,11.69
2022-10-23T08:31:56.000Z,11.75
2022-10-23T08:32:55.000Z,11.86
2022-10-23T08:33:55.000Z,11.94
2022-10-23T08:34:55.000Z,11.93
2022-10-23T08:35:55.000Z,11.79
2022-10-23T08:36:55.000Z,11.81
2022-10-23T08:37:55.000Z,11.99
2022-10-23T08:38:56.000Z,11.94
2022-10-23T08:39:55.000Z,11.99
2022-10-23T08:40:55.000Z,11.97
2022-10-23T08:41:55.000Z,11.96
2022-10-23T08:43:04.000Z,11.93
2022-10-23T08:44:15.000Z,11.81
2022-10-23T08:45:04.000Z,12.00
2022-10-23T08:46:01.000Z,11.96
2022-10-23T08:47:07.000Z,12.01
2022-10-23T08:48:04.000Z,12.02
2022-10-23T08:49:06.000Z,12.06
2022-10-23T08:50:00.000Z,11.99
2022-10-23T08:51:01.000Z,12.04
2022-10-23T08:51:58.000Z,12.04
2022-10-23T08:53:26.000Z,12.12
2022-10-23T08:54:04.000Z,12.19
2022-10-23T08:55:03.000Z,12.12
2022-10-23T08:56:01.000Z,12.15
2022-10-23T08:57:02.000Z,12.21
2022-10-23T08:58:05.000Z,12.15
2022-10-23T08:59:03.000Z,12.16
2022-10-23T09:00:04.000Z,12.19
2022-10-23T09:00:55.000Z,12.19
2022-10-23T09:02:03.000Z,12.21
2022-10-23T09:02:55.000Z,12.23
2022-10-23T09:03:55.000Z,12.24
2022-10-23T09:04:57.000Z,12.20
2022-10-23T09:06:06.000Z,12.23
2022-10-23T09:07:18.000Z,12.28
2022-10-23T09:08:07.000Z,12.34
2022-10-23T09:09:12.000Z,12.38
2022-10-23T09:10:12.000Z,12.33
2022-10-23T09:11:03.000Z,12.37
2022-10-23T09:12:05.000Z,12.35
2022-10-23T09:13:10.000Z,12.40
2022-10-23T09:14:11.000Z,12.38
2022-10-23T09:15:07.000Z,12.30
2022-10-23T09:16:05.000Z,12.40
2022-10-23T09:17:15.000Z,12.38
2022-10-23T09:18:05.000Z,12.45
2022-10-23T09:18:56.000Z,12.49
2022-10-23T09:20:05.000Z,12.43
2022-10-23T09:20:55.000Z,12.52
2022-10-23T09:21:56.000Z,12.51
2022-10-23T09:23:18.000Z,12.51
2022-10-23T09:23:55.000Z,12.52
2022-10-23T09:24:55.000Z,12.59
2022-10-23T09:25:55.000Z,12.52
2022-10-23T09:26:56.000Z,12.54
2022-10-23T09:27:58.000Z,12.52
2022-10-23T09:29:06.000Z,12.54
2022-10-23T09:29:55.000Z,12.52
2022-10-23T09:31:05.000Z,12.46
2022-10-23T09:32:00.000Z,12.52
2022-10-23T09:32:55.000Z,12.51
2022-10-23T09:33:59.000Z,12.51
2022-10-23T09:34:54.000Z,12.64
2022-10-23T09:36:04.000Z,12.75
2022-10-23T09:37:00.000Z,12.72
2022-10-23T09:37:56.000Z,12.74
2022-10-23T09:38:57.000Z,12.71
2022-10-23T09:40:09.000Z,12.76
2022-10-23T09:40:57.000Z,12.86
2022-10-23T09:41:55.000Z,12.76
2022-10-23T09:42:58.000Z,12.92
2022-10-23T09:44:15.000Z,12.84
2022-10-23T09:44:55.000Z,12.80
2022-10-23T09:45:57.000Z,12.88
2022-10-23T09:47:06.000Z,12.98
2022-10-23T09:48:10.000Z,12.77
2022-10-23T09:48:56.000Z,12.89
2022-10-23T09:49:55.000Z,12.95
2022-10-23T09:51:13.000Z,12.95
2022-10-23T09:52:25.000Z,13.11
2022-10-23T09:52:55.000Z,13.18
2022-10-23T09:53:57.000Z,13.21
2022-10-23T09:54:57.000Z,13.17
2022-10-23T09:55:59.000Z,13.24
2022-10-23T09:57:01.000Z,13.23
2022-10-23T09:57:55.000Z,13.22
2022-10-23T09:59:05.000Z,13.31
2022-10-23T09:59:59.000Z,13.22
2022-10-23T10:00:55.000Z,13.23
2022-10-23T10:02:00.000Z,13.17
2022-10-23T10:02:59.000Z,13.20
2022-10-23T10:03:55.000Z,13.27
2022-10-23T10:04:55.000Z,13.31
2022-10-23T10:05:58.000Z,13.28
2022-10-23T10:06:55.000Z,13.30
2022-10-23T10:08:05.000Z,13.21
2022-10-23T10:08:58.000Z,13.17
2022-10-23T10:09:56.000Z,13.22
2022-10-23T10:11:11.000Z,13.17
2022-10-23T10:12:20.000Z,13.17
2022-10-23T10:13:01.000Z,13.11
2022-10-23T10:14:05.000Z,13.17
2022-10-23T10:15:15.000Z,13.22
2022-10-23T10:16:01.000Z,13.24
2022-10-23T10:17:05.000Z,13.21
2022-10-23T10:18:05.000Z,13.24
2022-10-23T10:19:18.000Z,13.18
2022-10-23T10:20:05.000Z,13.21
2022-10-23T10:21:07.000Z,13.25
2022-10-23T10:22:05.000Z,13.32
2022-10-23T10:23:03.000Z,13.44
2022-10-23T10:24:04.000Z,13.46
2022-10-23T10:25:05.000Z,13.50
2022-10-23T10:26:31.000Z,13.47
2022-10-23T10:27:29.000Z,13.50
2022-10-23T10:28:08.000Z,13.55
2022-10-23T10:29:04.000Z,13.58
2022-10-23T10:30:06.000Z,13.46
2022-10-23T10:31:18.000Z,13.42
2022-10-23T10:32:05.000Z,13.54
2022-10-23T10:33:08.000Z,13.48
2022-10-23T10:34:08.000Z,13.50
2022-10-23T10:35:06.000Z,13.40
2022-10-23T10:36:11.000Z,13.48
2022-10-23T10:37:04.000Z,13.46
2022-10-23T10:38:05.000Z,13.42
2022-10-23T10:39:00.000Z,13.47
2022-10-23T10:40:06.000Z,13.46
2022-10-23T10:41:18.000Z,13.48
2022-10-23T10:42:11.000Z,13.44
2022-10-23T10:43:20.000Z,13.43
2022-10-23T10:44:09.000Z,13.57
2022-10-23T10:45:06.000Z,13.67
2022-10-23T10:46:18.000Z,13.70
2022-10-23T10:47:15.000Z,13.75
2022-10-23T10:48:05.000Z,13.84
2022-10-23T10:49:05.000Z,13.72
2022-10-23T10:50:15.000Z,13.71
2022-10-23T10:51:04.000Z,13.62
2022-10-23T10:52:23.000Z,13.71
2022-10-23T10:53:07.000Z,13.74
2022-10-23T10:54:10.000Z,13.61
2022-10-23T10:55:08.000Z,13.68
2022-10-23T10:55:58.000Z,13.65
2022-10-23T10:56:58.000Z,13.70
2022-10-23T10:58:04.000Z,13.70
2022-10-23T10:59:00.000Z,13.69
2022-10-23T11:00:00.000Z,13.77
2022-10-23T11:00:59.000Z,13.68
2022-10-23T11:02:10.000Z,13.71
2022-10-23T11:03:11.000Z,13.71
2022-10-23T11:04:04.000Z,13.82
2022-10-23T11:05:05.000Z,13.80
2022-10-23T11:05:58.000Z,13.81
2022-10-23T11:06:57.000Z,13.93
2022-10-23T11:08:03.000Z,13.76
2022-10-23T11:09:00.000Z,13.77
2022-10-23T11:09:58.000Z,13.93
2022-10-23T11:11:07.000Z,13.80
2022-10-23T11:11:55.000Z,13.86
2022-10-23T11:12:55.000Z,13.88
2022-10-23T11:13:56.000Z,13.72
2022-10-23T11:14:55.000Z,13.73
2022-10-23T11:16:00.000Z,13.75
2022-10-23T11:17:07.000Z,13.74
2022-10-23T11:18:02.000Z,13.76
2022-10-23T11:19:06.000Z,13.74
2022-10-23T11:20:03.000Z,13.79
2022-10-23T11:21:25.000Z,13.83
2022-10-23T11:22:09.000Z,13.83
2022-10-23T11:23:15.000Z,13.92
2022-10-23T11:24:05.000Z,13.95
2022-10-23T11:25:05.000Z,13.97
2022-10-23T11:26:08.000Z,14.05
2022-10-23T11:27:12.000Z,14.06
2022-10-23T11:28:05.000Z,14.07
2022-10-23T11:29:05.000Z,14.15
2022-10-23T11:30:05.000Z,14.16
2022-10-23T11:31:15.000Z,14.20
2022-10-23T11:32:05.000Z,14.23
2022-10-23T11:33:13.000Z,14.15
2022-10-23T11:34:18.000Z,14.03
2022-10-23T11:35:15.000Z,13.88
2022-10-23T11:36:05.000Z,14.06
2022-10-23T11:36:58.000Z,14.12
2022-10-23T11:38:18.000Z,13.95
2022-10-23T11:39:21.000Z,13.97
2022-10-23T11:40:06.000Z,13.94
2022-10-23T11:41:15.000Z,14.03
2022-10-23T11:41:58.000Z,14.03
2022-10-23T11:42:55.000Z,13.93
2022-10-23T11:43:58.000Z,13.98
2022-10-23T11:44:55.000Z,13.95
2022-10-23T11:45:56.000Z,13.97
2022-10-23T11:47:04.000Z,13.85
2022-10-23T11:48:02.000Z,13.95
2022-10-23T11:48:56.000Z,14.05
2022-10-23T11:50:05.000Z,14.11
2022-10-23T11:50:55.000Z,13.97
2022-10-23T11:52:03.000Z,14.15
2022-10-23T11:53:02.000Z,14.06
2022-10-23T11:54:05.000Z,14.11
2022-10-23T11:55:01.000Z,14.11
2022-10-23T11:56:05.000Z,14.09
2022-10-23T11:57:18.000Z,13.80
2022-10-23T11:58:18.000Z,13.99
2022-10-23T11:58:57.000Z,14.21
2022-10-23T11:59:56.000Z,13.90
2022-10-23T12:01:14.000Z,14.11
2022-10-23T12:01:57.000Z,14.18
2022-10-23T12:02:56.000Z,14.12
2022-10-23T12:04:00.000Z,14.15
2022-10-23T12:04:56.000Z,14.04
2022-10-23T12:05:59.000Z,14.04
2022-10-23T12:06:59.000Z,14.15
2022-10-23T12:07:59.000Z,14.26
2022-10-23T12:09:00.000Z,14.26
2022-10-23T12:10:02.000Z,13.90
2022-10-23T12:10:55.000Z,14.12
2022-10-23T12:12:12.000Z,14.18
2022-10-23T12:12:58.000Z,14.27
2022-10-23T12:13:55.000Z,14.22
2022-10-23T12:15:05.000Z,14.11
2022-10-23T12:15:55.000Z,14.12
2022-10-23T12:16:55.000Z,14.12
2022-10-23T12:18:05.000Z,14.16
2022-10-23T12:18:56.000Z,14.15
2022-10-23T12:20:05.000Z,13.98
2022-10-23T12:21:00.000Z,14.08
2022-10-23T12:22:00.000Z,14.03
2022-10-23T12:23:15.000Z,14.13
2022-10-23T12:24:05.000Z,14.19
2022-10-23T12:25:04.000Z,14.02
2022-10-23T12:26:05.000Z,14.19
2022-10-23T12:27:28.000Z,14.16
2022-10-23T12:28:06.000Z,14.15
2022-10-23T12:29:05.000Z,14.12
2022-10-23T12:30:03.000Z,14.23
2022-10-23T12:31:16.000Z,14.22
2022-10-23T12:32:05.000Z,14.21
2022-10-23T12:33:10.000Z,14.30
2022-10-23T12:34:08.000Z,14.28
2022-10-23T12:35:10.000Z,14.32
2022-10-23T12:36:15.000Z,14.24
2022-10-23T12:37:11.000Z,14.30
2022-10-23T12:38:05.000Z,14.33
2022-10-23T12:38:57.000Z,14.26
2022-10-23T12:39:57.000Z,14.24
2022-10-23T12:41:02.000Z,14.37
2022-10-23T12:41:55.000Z,14.36
2022-10-23T12:42:57.000Z,14.26
2022-10-23T12:44:00.000Z,14.16
2022-10-23T12:45:00.000Z,14.26
2022-10-23T12:46:14.000Z,14.42
2022-10-23T12:46:57.000Z,14.51
2022-10-23T12:47:55.000Z,14.49
2022-10-23T12:48:56.000Z,14.31
2022-10-23T12:49:54.000Z,14.27
2022-10-23T12:50:54.000Z,14.56
2022-10-23T12:52:01.000Z,14.37
2022-10-23T12:53:01.000Z,14.25